createdAt,value
2018-01-12T00:01:08.152Z,87.78
2018-01-12T00:03:35.887Z,107.12
2018-01-12T00:06:03.679Z,87.80
2018-01-12T00:08:31.444Z,83.75
2018-01-12T00:10:59.182Z,81.57
2018-01-12T00:13:26.969Z,84.62
2018-01-12T00:15:54.700Z,88.30
2018-01-12T00:18:22.433Z,95.32
2018-01-12T00:20:50.242Z,70.00
2018-01-12T00:23:17.974Z,80.38
2018-01-12T00:25:45.700Z,80.10
2018-01-12T00:28:14.445Z,85.05
2018-01-12T00:30:42.175Z,86.97
2018-01-12T00:33:09.909Z,83.85
2018-01-12T00:35:38.461Z,82.60
2018-01-12T00:38:06.205Z,79.53
2018-01-12T00:40:33.944Z,85.87
2018-01-12T00:43:01.741Z,64.95
2018-01-12T00:45:29.479Z,93.25
2018-01-12T00:47:57.224Z,76.00
2018-01-12T00:50:25.014Z,91.45
2018-01-12T00:52:52.872Z,78.37
2018-01-12T00:55:20.665Z,73.70
2018-01-12T00:57:48.454Z,75.68
2018-01-12T01:00:16.953Z,72.55
2018-01-12T01:02:44.684Z,70.53
2018-01-12T01:05:13.236Z,77.65
2018-01-12T01:07:40.973Z,63.83
2018-01-12T01:10:08.712Z,67.53
2018-01-12T01:12:36.497Z,76.80
2018-01-12T01:15:04.234Z,75.25
2018-01-12T01:17:31.966Z,83.35
2018-01-12T01:20:00.520Z,77.25
2018-01-12T01:22:28.248Z,77.93
2018-01-12T01:24:55.981Z,68.75
2018-01-12T01:27:24.542Z,95.18
2018-01-12T01:29:52.274Z,91.82
2018-01-12T01:32:20.014Z,82.47
2018-01-12T01:34:47.797Z,82.90
2018-01-12T01:37:15.536Z,92.05
2018-01-12T01:39:43.264Z,92.95
2018-01-12T01:42:11.816Z,77.97
2018-01-12T01:44:39.559Z,78.43
2018-01-12T01:47:07.290Z,74.78
2018-01-12T01:49:35.075Z,71.45
2018-01-12T01:52:02.834Z,74.18
2018-01-12T01:54:30.559Z,67.40
2018-01-12T01:56:58.347Z,65.22
2018-01-12T01:59:26.080Z,84.07
2018-01-12T02:01:53.815Z,73.80
2018-01-12T02:04:21.602Z,73.93
2018-01-12T02:06:50.101Z,63.25
2018-01-12T02:09:17.829Z,68.60
2018-01-12T02:11:46.386Z,54.45
2018-01-12T02:14:14.136Z,63.13
2018-01-12T02:16:42.629Z,50.80
2018-01-12T02:19:10.412Z,50.50
2018-01-12T02:21:38.909Z,54.22
2018-01-12T02:24:06.644Z,56.47
2018-01-12T02:26:34.429Z,53.40
2018-01-12T02:29:02.163Z,55.53
2018-01-12T02:31:29.908Z,55.92
2018-01-12T02:33:57.704Z,53.20
2018-01-12T02:36:26.197Z,54.58
2018-01-12T02:38:53.927Z,57.25
2018-01-12T02:41:21.714Z,50.95
2018-01-12T02:43:50.340Z,49.40
2018-01-12T02:46:18.074Z,63.30
2018-01-12T02:48:45.864Z,61.45
2018-01-12T02:51:13.597Z,58.85
2018-01-12T02:53:41.341Z,54.38
2018-01-12T02:56:09.131Z,55.17
2018-01-12T02:58:36.864Z,51.70
2018-01-12T03:01:04.592Z,51.63
2018-01-12T03:03:32.375Z,53.60
2018-01-12T03:06:00.873Z,42.15
2018-01-12T03:08:28.603Z,51.47
2018-01-12T03:10:56.391Z,55.00
2018-01-12T03:13:24.119Z,51.65
2018-01-12T03:15:51.852Z,53.53
2018-01-12T03:18:19.641Z,45.78
2018-01-12T03:20:47.382Z,43.72
2018-01-12T03:23:15.112Z,52.45
2018-01-12T03:25:42.936Z,48.87
2018-01-12T03:28:10.668Z,54.67
2018-01-12T03:30:38.420Z,58.95
2018-01-12T03:33:07.204Z,52.65
2018-01-12T03:35:34.927Z,59.25
2018-01-12T03:38:02.655Z,53.33
2018-01-12T03:40:30.444Z,54.10
2018-01-12T03:42:58.189Z,47.80
2018-01-12T03:45:25.926Z,57.67
2018-01-12T03:47:53.723Z,55.08
2018-01-12T03:50:22.216Z,51.72
2018-01-12T03:52:49.942Z,53.35
2018-01-12T03:55:17.736Z,56.40
2018-01-12T03:57:46.236Z,46.80
2018-01-12T04:00:13.983Z,54.63
2018-01-12T04:02:41.785Z,57.97
2018-01-12T04:05:09.522Z,59.20
2018-01-12T04:07:37.263Z,49.80
2018-01-12T04:10:05.058Z,52.80
2018-01-12T04:12:32.791Z,50.75
2018-01-12T04:15:00.519Z,50.10
2018-01-12T04:17:28.303Z,49.67
2018-01-12T04:19:56.795Z,55.88
2018-01-12T04:22:24.523Z,48.58
2018-01-12T04:24:52.311Z,50.30
2018-01-12T04:27:20.073Z,52.50
2018-01-12T04:29:47.804Z,53.85
2018-01-12T04:32:15.588Z,53.00
2018-01-12T04:34:44.079Z,65.12
2018-01-12T04:37:11.813Z,50.25
2018-01-12T04:39:39.607Z,49.83
2018-01-12T04:42:07.341Z,53.90
2018-01-12T04:44:35.843Z,49.53
2018-01-12T04:47:03.650Z,60.72
2018-01-12T04:49:31.379Z,60.63
2018-01-12T04:51:59.129Z,56.58
2018-01-12T04:54:26.910Z,57.95
2018-01-12T04:56:54.656Z,49.88
2018-01-12T04:59:22.392Z,61.37
2018-01-12T05:01:50.190Z,52.22
2018-01-12T05:04:17.930Z,66.07
2018-01-12T05:06:45.676Z,56.88
2018-01-12T05:09:14.237Z,59.25
2018-01-12T05:11:41.978Z,55.80
2018-01-12T05:14:09.750Z,61.22
2018-01-12T05:16:37.552Z,60.95
2018-01-12T05:19:06.078Z,59.60
2018-01-12T05:21:33.825Z,55.50
2018-01-12T05:24:01.670Z,52.92
2018-01-12T05:26:29.394Z,74.78
2018-01-12T05:28:57.127Z,55.35
2018-01-12T05:31:24.947Z,54.25
2018-01-12T05:33:52.679Z,64.57
2018-01-12T05:36:20.416Z,75.95
2018-01-12T05:38:48.219Z,56.63
2018-01-12T05:41:16.716Z,62.22
2018-01-12T05:43:44.443Z,64.60
2018-01-12T05:46:12.241Z,63.20
2018-01-12T05:48:39.976Z,74.30
2018-01-12T05:51:08.482Z,64.85
2018-01-12T05:53:36.285Z,62.20
2018-01-12T05:56:04.020Z,63.13
2018-01-12T05:58:31.751Z,65.90
2018-01-12T06:01:12.068Z,64.60
2018-01-12T06:03:51.617Z,71.55
2018-01-12T06:06:19.426Z,67.93
2018-01-12T06:08:47.164Z,71.87
2018-01-12T06:11:15.660Z,67.80
2018-01-12T06:13:43.447Z,62.17
2018-01-12T06:16:11.331Z,61.97
2018-01-12T06:18:39.068Z,64.55
2018-01-12T06:21:06.860Z,63.30
2018-01-12T06:23:34.603Z,65.12
2018-01-12T06:26:02.337Z,72.53
2018-01-12T06:28:30.151Z,74.68
2018-01-12T06:30:57.889Z,50.90
2018-01-12T06:33:25.620Z,50.92
2018-01-12T06:35:53.411Z,52.97
2018-01-12T06:38:21.146Z,56.65
2018-01-12T06:40:48.885Z,58.80
2018-01-12T06:43:17.452Z,51.53
2018-01-12T06:45:45.189Z,56.67
2018-01-12T06:48:12.929Z,51.20
2018-01-12T06:50:40.760Z,49.60
2018-01-12T06:53:09.284Z,47.38
2018-01-12T06:55:37.020Z,49.80
2018-01-12T06:58:04.804Z,38.65
2018-01-12T07:00:32.551Z,37.72
2018-01-12T07:03:00.289Z,36.25
2018-01-12T07:05:28.237Z,41.60
2018-01-12T07:07:56.746Z,41.30
2018-01-12T07:10:24.477Z,46.70
2018-01-12T07:12:53.043Z,37.90
2018-01-12T07:15:20.788Z,44.05
2018-01-12T07:17:48.553Z,46.05
2018-01-12T07:20:28.327Z,49.47
2018-01-12T07:23:08.621Z,41.90
2018-01-12T07:25:36.413Z,48.78
2018-01-12T07:28:04.156Z,55.12
2018-01-12T07:30:31.958Z,48.92
2018-01-12T07:32:59.751Z,52.03
2018-01-12T07:35:27.500Z,52.90
2018-01-12T07:37:56.034Z,56.22
2018-01-12T07:40:23.840Z,49.75
2018-01-12T07:42:52.343Z,50.30
2018-01-12T07:45:20.084Z,48.95
2018-01-12T07:47:48.838Z,48.95
2018-01-12T07:50:16.569Z,54.65
2018-01-12T07:52:50.013Z,57.05
2018-01-12T07:55:18.524Z,48.40
2018-01-12T07:57:46.267Z,50.95
2018-01-12T08:00:14.064Z,63.22
2018-01-12T08:02:47.541Z,51.53
2018-01-12T08:05:15.331Z,62.05
2018-01-12T08:07:43.080Z,55.85
2018-01-12T08:10:10.819Z,63.95
2018-01-12T08:12:38.612Z,56.55
2018-01-12T08:15:06.344Z,60.15
2018-01-12T08:17:34.083Z,54.85
2018-01-12T08:20:02.648Z,59.47
2018-01-12T08:22:30.392Z,56.33
2018-01-12T08:24:58.144Z,58.53
2018-01-12T08:27:25.944Z,62.60
2018-01-12T08:29:54.454Z,60.97
2018-01-12T08:32:22.203Z,71.72
2018-01-12T08:34:50.004Z,72.50
2018-01-12T08:37:17.748Z,70.60
2018-01-12T08:39:45.492Z,64.32
2018-01-12T08:42:13.297Z,59.47
2018-01-12T08:44:41.080Z,60.58
2018-01-12T08:47:08.832Z,67.10
2018-01-12T08:49:36.642Z,63.05
2018-01-12T08:52:04.408Z,60.63
2018-01-12T08:54:32.151Z,57.90
2018-01-12T08:57:00.722Z,51.95
2018-01-12T08:59:29.256Z,56.90
2018-01-12T09:01:57.011Z,59.00
2018-01-12T09:04:24.809Z,67.20
2018-01-12T09:06:52.548Z,49.38
2018-01-12T09:09:20.316Z,82.78
2018-01-12T09:11:48.875Z,58.25
2018-01-12T09:14:28.478Z,58.80
2018-01-12T09:16:56.285Z,58.65
2018-01-12T09:19:29.779Z,61.42
2018-01-12T09:21:57.591Z,59.80
2018-01-12T09:24:26.112Z,61.75
2018-01-12T09:26:53.856Z,59.28
2018-01-12T09:29:21.657Z,68.65
2018-01-12T09:31:51.349Z,68.95
2018-01-12T09:34:30.921Z,66.35
2018-01-12T09:36:58.667Z,59.72
2018-01-12T09:39:48.272Z,67.53
2018-01-12T09:42:16.774Z,67.82
2018-01-12T09:44:44.519Z,66.47
2018-01-12T09:47:21.765Z,56.45
2018-01-12T09:49:49.512Z,58.47
2018-01-12T09:52:17.250Z,54.58
2018-01-12T09:54:45.064Z,72.43
2018-01-12T09:57:12.809Z,65.78
2018-01-12T09:59:44.416Z,63.53
2018-01-12T10:02:12.225Z,70.43
2018-01-12T10:04:39.975Z,77.03
2018-01-12T10:07:20.130Z,73.80
2018-01-12T10:09:48.808Z,80.30
2018-01-12T10:12:16.697Z,62.70
2018-01-12T10:14:44.501Z,68.93
2018-01-12T10:17:12.238Z,67.30
2018-01-12T10:33:18.911Z,65.07
2018-01-12T10:35:55.476Z,67.87
2018-01-12T10:38:23.297Z,78.97
2018-01-12T10:41:09.855Z,70.05
2018-01-12T10:43:37.653Z,71.43
2018-01-12T10:46:31.136Z,70.00
2018-01-12T10:48:58.934Z,72.72
2018-01-12T10:51:37.632Z,64.60
2018-01-12T10:54:06.185Z,61.17
2018-01-12T10:56:33.970Z,61.55
2018-01-12T10:59:02.499Z,68.55
2018-01-12T11:01:30.309Z,57.85
2018-01-12T11:03:58.070Z,57.65
2018-01-12T11:06:25.817Z,58.17
2018-01-12T11:08:53.621Z,70.97
2018-01-12T11:11:21.360Z,58.53
2018-01-12T11:13:49.101Z,65.45
2018-01-12T11:16:16.909Z,63.05
2018-01-12T11:18:44.654Z,71.57
2018-01-12T11:21:13.156Z,60.97
2018-01-12T11:23:40.957Z,63.08
2018-01-12T11:26:08.696Z,57.38
2018-01-12T11:28:36.439Z,60.10
2018-01-12T11:31:04.243Z,61.03
2018-01-12T11:33:32.755Z,60.35
2018-01-12T11:36:01.268Z,70.55
2018-01-12T11:38:29.064Z,66.95
2018-01-12T11:40:56.803Z,61.50
2018-01-12T11:43:24.547Z,59.03
2018-01-12T11:45:52.345Z,54.38
2018-01-12T11:48:20.089Z,53.42
2018-01-12T11:50:47.847Z,57.42
2018-01-12T11:53:15.787Z,53.55
2018-01-12T11:55:43.545Z,59.58
2018-01-12T11:58:12.060Z,46.97
2018-01-12T12:00:40.017Z,54.72
2018-01-12T12:03:07.765Z,59.45
2018-01-12T12:05:35.512Z,46.90
2018-01-12T12:08:04.249Z,54.00
2018-01-12T12:10:32.767Z,43.78
2018-01-12T12:13:01.283Z,47.03
2018-01-12T12:15:29.222Z,44.83
2018-01-12T12:17:57.732Z,39.22
2018-01-12T12:20:25.474Z,40.38
2018-01-12T12:22:53.276Z,40.30
2018-01-12T12:25:21.043Z,41.35
2018-01-12T12:27:49.054Z,42.75
2018-01-12T12:30:17.607Z,42.25
2018-01-12T12:32:45.345Z,40.12
2018-01-12T12:35:13.089Z,35.55
2018-01-12T12:37:40.872Z,39.65
2018-01-12T12:40:08.616Z,40.75
2018-01-12T12:42:36.347Z,39.78
2018-01-12T12:45:04.491Z,29.52
2018-01-12T12:47:33.006Z,29.20
2018-01-12T12:50:00.751Z,36.92
2018-01-12T12:52:29.303Z,37.33
2018-01-12T12:54:57.056Z,41.05
2018-01-12T12:57:24.804Z,39.30
2018-01-12T12:59:52.616Z,35.35
2018-01-12T13:02:21.128Z,35.00
2018-01-12T13:04:48.878Z,31.00
2018-01-12T13:07:16.675Z,37.05
2018-01-12T13:09:44.411Z,38.25
2018-01-12T13:12:12.144Z,35.58
2018-01-12T13:14:40.703Z,36.50
2018-01-12T13:17:08.441Z,37.90
2018-01-12T13:19:36.947Z,38.85
2018-01-12T13:22:05.508Z,36.38
2018-01-12T13:24:33.254Z,37.47
2018-01-12T13:27:00.991Z,35.47
2018-01-12T13:29:28.779Z,34.70
2018-01-12T13:31:56.544Z,31.33
2018-01-12T13:34:24.291Z,37.95
2018-01-12T13:36:52.091Z,38.53
2018-01-12T13:39:19.825Z,32.75
2018-01-12T13:41:47.655Z,37.17
2018-01-12T13:44:15.452Z,36.55
2018-01-12T13:46:43.188Z,33.40
2018-01-12T13:49:10.935Z,37.88
2018-01-12T13:51:38.754Z,33.28
2018-01-12T13:54:06.508Z,29.83
2018-01-12T13:56:35.012Z,37.60
2018-01-12T13:59:02.807Z,31.98
2018-01-12T14:01:30.541Z,33.72
2018-01-12T14:03:59.053Z,36.65
2018-01-12T14:06:26.854Z,30.48
2018-01-12T14:08:54.602Z,34.97
2018-01-12T14:11:22.339Z,29.98
2018-01-12T14:13:50.140Z,33.00
2018-01-12T14:16:17.876Z,35.00
2018-01-12T14:18:45.608Z,33.00
2018-01-12T14:21:13.398Z,33.70
2018-01-12T14:23:41.140Z,30.92
2018-01-12T14:26:08.890Z,35.10
2018-01-12T14:28:36.684Z,37.03
2018-01-12T14:31:04.434Z,51.15
2018-01-12T14:33:32.170Z,54.05
2018-01-12T14:36:00.723Z,37.35
2018-01-12T14:38:28.460Z,39.83
2018-01-12T14:40:56.199Z,33.63
2018-01-12T14:43:24.508Z,41.78
2018-01-12T14:45:52.241Z,36.53
2018-01-12T14:48:19.977Z,33.60
2018-01-12T14:50:47.763Z,38.35
2018-01-12T14:53:15.515Z,39.55
2018-01-12T14:55:43.482Z,30.05
2018-01-12T14:58:11.317Z,46.75
2018-01-12T15:00:39.811Z,36.35
2018-01-12T15:03:08.130Z,34.75
2018-01-12T15:05:36.675Z,38.15
2018-01-12T15:08:04.406Z,39.08
2018-01-12T15:10:32.898Z,41.42
2018-01-12T15:13:01.450Z,34.72
2018-01-12T15:15:29.185Z,43.00
2018-01-12T15:17:56.942Z,33.38
2018-01-12T15:20:24.731Z,37.58
2018-01-12T15:22:52.463Z,34.83
2018-01-12T15:25:20.263Z,39.17
2018-01-12T15:27:48.053Z,37.55
2018-01-12T15:30:15.783Z,36.88
2018-01-12T15:32:43.539Z,36.83
2018-01-12T15:35:11.323Z,38.22
2018-01-12T15:37:39.815Z,35.75
2018-01-12T15:40:07.546Z,42.80
2018-01-12T15:42:35.365Z,37.08
2018-01-12T15:45:03.107Z,47.08
2018-01-12T15:47:30.840Z,36.42
2018-01-12T15:49:59.398Z,44.35
2018-01-12T15:52:27.122Z,38.00
2018-01-12T15:54:54.879Z,38.72
2018-01-12T15:57:22.679Z,33.92
2018-01-12T15:59:50.406Z,41.13
2018-01-12T16:02:18.136Z,45.08
2018-01-12T16:04:46.677Z,46.65
2018-01-12T16:07:14.402Z,38.10
2018-01-12T16:09:42.137Z,40.28
2018-01-12T16:12:09.971Z,45.70
2018-01-12T16:14:37.733Z,46.42
2018-01-12T16:17:05.462Z,47.67
2018-01-12T16:19:33.247Z,46.65
2018-01-12T16:22:00.979Z,44.92
2018-01-12T16:24:28.702Z,47.67
2018-01-12T16:26:57.251Z,45.90
2018-01-12T16:29:24.979Z,48.63
2018-01-12T16:31:52.707Z,59.08
2018-01-12T16:34:21.249Z,65.65
2018-01-12T16:36:48.968Z,64.05
2018-01-12T16:39:17.472Z,51.80
2018-01-12T16:41:44.519Z,56.58
2018-01-12T16:44:12.242Z,66.05
2018-01-12T16:46:40.739Z,75.55
2018-01-12T16:49:09.278Z,71.70
2018-01-12T16:51:36.998Z,74.05
2018-01-12T16:54:04.718Z,84.13
2018-01-12T16:56:33.259Z,79.22
2018-01-12T16:59:00.986Z,78.22
2018-01-12T17:01:28.702Z,66.45
2018-01-12T17:03:56.478Z,72.55
2018-01-12T17:06:24.962Z,57.75
2018-01-12T17:08:53.455Z,90.80
2018-01-12T17:11:21.242Z,73.20
2018-01-12T17:13:48.966Z,77.90
2018-01-12T17:16:17.462Z,64.30
2018-01-12T17:18:45.248Z,71.90
2018-01-12T17:21:13.003Z,64.85
2018-01-12T17:23:40.737Z,72.82
2018-01-12T17:26:08.522Z,57.80
2018-01-12T17:28:36.258Z,60.65
2018-01-12T17:31:04.746Z,68.10
2018-01-12T17:33:32.534Z,78.40
2018-01-12T17:36:00.265Z,72.25
2018-01-12T17:38:27.997Z,59.03
2018-01-12T17:40:55.807Z,64.82
2018-01-12T17:43:23.549Z,65.97
2018-01-12T17:45:51.286Z,69.85
2018-01-12T17:48:19.842Z,75.12
2018-01-12T17:50:47.568Z,65.22
2018-01-12T17:53:15.304Z,61.13
2018-01-12T17:55:44.244Z,62.92
2018-01-12T17:58:11.976Z,63.47
2018-01-12T18:00:39.811Z,76.45
2018-01-12T18:03:08.351Z,62.42
2018-01-12T18:05:36.849Z,54.55
2018-01-12T18:08:04.599Z,63.72
2018-01-12T18:10:32.386Z,67.85
2018-01-12T18:13:00.874Z,71.95
2018-01-12T18:15:29.358Z,71.82
2018-01-12T18:17:57.902Z,63.95
2018-01-12T18:20:25.627Z,70.80
2018-01-12T18:22:53.357Z,64.35
2018-01-12T18:25:21.902Z,62.88
2018-01-12T18:27:49.632Z,55.47
2018-01-12T18:30:17.357Z,61.20
2018-01-12T18:32:45.902Z,64.80
2018-01-12T18:35:13.631Z,57.13
2018-01-12T18:37:41.363Z,66.12
2018-01-12T18:40:13.583Z,61.80
2018-01-12T18:42:54.083Z,56.22
2018-01-12T18:45:36.031Z,57.40
2018-01-12T18:48:14.584Z,65.62
2018-01-12T18:50:56.471Z,58.92
2018-01-12T18:56:06.032Z,53.22
2018-01-12T18:58:34.555Z,49.70
2018-01-12T19:01:02.284Z,52.03
2018-01-12T19:03:30.076Z,52.15
2018-01-12T19:05:57.798Z,55.45
2018-01-12T19:08:26.322Z,52.35
2018-01-12T19:10:54.114Z,57.67
2018-01-12T19:13:22.624Z,57.45
2018-01-12T19:15:50.354Z,62.88
2018-01-12T19:18:18.139Z,62.13
2018-01-12T19:20:46.631Z,66.62
2018-01-12T19:23:14.400Z,47.97
2018-01-12T19:25:42.189Z,70.90
2018-01-12T19:28:09.916Z,61.72
2018-01-12T19:30:37.641Z,52.97
2018-01-12T19:33:05.417Z,64.22
2018-01-12T19:35:33.139Z,63.17
2018-01-12T19:38:00.866Z,64.62
2018-01-12T19:40:28.665Z,66.47
2018-01-12T19:42:56.390Z,53.87
2018-01-12T19:45:24.114Z,60.50
2018-01-12T19:47:51.896Z,63.20
2018-01-12T19:50:20.386Z,60.08
2018-01-12T19:52:48.106Z,64.60
2018-01-12T19:55:15.879Z,57.20
2018-01-12T19:57:43.594Z,67.15
2018-01-12T20:00:11.329Z,61.67
2018-01-12T20:02:39.113Z,74.12
2018-01-12T20:05:06.892Z,47.22
2018-01-12T20:07:34.623Z,53.75
2018-01-12T20:10:02.406Z,68.22
2018-01-12T20:12:30.142Z,60.67
2018-01-12T20:14:57.880Z,63.00
2018-01-12T20:17:26.430Z,60.60
2018-01-12T20:19:54.291Z,61.50
2018-01-12T20:22:22.785Z,51.00
2018-01-12T20:24:50.614Z,57.08
2018-01-12T20:27:18.353Z,50.50
2018-01-12T20:29:46.075Z,52.75
2018-01-12T20:32:14.204Z,56.25
2018-01-12T20:34:42.090Z,55.38
2018-01-12T20:37:09.848Z,51.45
2018-01-12T20:39:37.649Z,52.60
2018-01-12T20:42:06.158Z,49.72
2018-01-12T20:44:34.487Z,37.13
2018-01-12T20:47:02.304Z,45.12
2018-01-12T20:49:30.054Z,39.60
2018-01-12T20:51:57.802Z,46.15
2018-01-12T20:54:25.629Z,46.42
2018-01-12T20:56:53.461Z,39.30
2018-01-12T20:59:21.262Z,46.00
2018-01-12T21:01:49.070Z,43.80
2018-01-12T21:04:16.822Z,45.55
2018-01-12T21:06:44.583Z,51.70
2018-01-12T21:09:12.390Z,52.67
2018-01-12T21:11:40.136Z,40.55
2018-01-12T21:14:07.931Z,41.90
2018-01-12T21:16:35.767Z,40.80
2018-01-12T21:19:03.517Z,38.47
2018-01-12T21:21:31.270Z,45.67
2018-01-12T21:24:03.622Z,43.38
2018-01-12T21:26:33.161Z,45.72
2018-01-12T21:29:00.905Z,43.33
2018-01-12T21:31:28.703Z,46.60
2018-01-12T21:33:56.446Z,43.83
2018-01-12T21:36:24.194Z,44.10
2018-01-12T21:38:52.196Z,48.47
2018-01-12T21:41:19.961Z,36.35
2018-01-12T21:43:47.716Z,40.78
2018-01-12T21:46:15.516Z,41.80
2018-01-12T21:48:44.334Z,40.90
2018-01-12T21:51:12.089Z,36.08
2018-01-12T21:53:39.922Z,44.28
2018-01-12T21:56:08.442Z,36.55
2018-01-12T21:58:36.199Z,41.05
2018-01-12T22:01:04.009Z,47.88
2018-01-12T22:03:31.757Z,43.30
2018-01-12T22:05:59.507Z,40.45
2018-01-12T22:08:27.306Z,40.80
2018-01-12T22:10:55.820Z,45.60
2018-01-12T22:13:23.576Z,44.38
2018-01-12T22:15:51.375Z,41.83
2018-01-12T22:18:19.138Z,50.40
2018-01-12T22:20:46.905Z,42.50
2018-01-12T22:23:14.732Z,33.75
2018-01-12T22:25:42.499Z,40.05
2018-01-12T22:28:10.250Z,36.58
2018-01-12T22:30:38.064Z,37.35
2018-01-12T22:33:05.818Z,37.47
2018-01-12T22:35:33.566Z,36.28
2018-01-12T22:38:01.367Z,42.13
2018-01-12T22:40:29.888Z,35.45
2018-01-12T22:42:57.667Z,29.30
2018-01-12T22:45:25.465Z,36.53
2018-01-12T22:47:53.220Z,37.25
2018-01-12T22:50:20.966Z,37.85
2018-01-12T22:52:48.781Z,33.35
2018-01-12T22:55:16.611Z,31.75
2018-01-12T22:57:44.361Z,30.23
2018-01-12T23:00:15.028Z,35.78
2018-01-12T23:02:42.806Z,26.52
2018-01-12T23:05:10.550Z,29.00
2018-01-12T23:07:39.118Z,26.23
2018-01-12T23:10:07.651Z,28.77
2018-01-12T23:12:35.430Z,31.17
2018-01-12T23:15:03.233Z,24.55
2018-01-12T23:17:31.747Z,24.27
2018-01-12T23:19:59.497Z,25.67
2018-01-12T23:22:27.302Z,27.08
2018-01-12T23:24:55.053Z,29.08
2018-01-12T23:27:22.794Z,27.83
2018-01-12T23:29:50.644Z,27.60
2018-01-12T23:32:18.407Z,28.23
2018-01-12T23:34:46.152Z,27.67
2018-01-12T23:37:13.967Z,24.55
2018-01-12T23:39:42.472Z,25.60
2018-01-12T23:42:10.980Z,28.55
2018-01-12T23:44:38.789Z,25.85
2018-01-12T23:47:06.536Z,21.60
2018-01-12T23:49:34.290Z,24.30
2018-01-12T23:52:02.092Z,26.77
2018-01-12T23:54:29.837Z,26.65
2018-01-12T23:56:57.640Z,23.65
2018-01-12T23:59:25.450Z,23.10
